<?xml version="1.0" encoding="UTF-8" standalone="no" ?>
<gpx xmlns="http://www.topografix.com/GPX/1/1" xmlns:xsi="http://www.w3.org/2001/XMLSchema-instance" xsi:schemaLocation="http://www.topografix.com/GPX/1/1 http://www.topografix.com/GPX/1/1/gpx.xsd" version="1.1" creator="VisuGPX - https://www.visugpx.com">
  <metadata>
    <name>St Valier</name>
    <desc><![CDATA[Bon bein Y manquela fin]]></desc>
  </metadata>
  <trk>
    <name><![CDATA[StValier.Juju.Jluc]]></name>
    <trkseg>
      <trkpt lat="43.69607" lon="6.85021">
        <ele>715</ele>
        <time>2012-04-22T06:09:06Z</time>
      </trkpt>
      <trkpt lat="43.69634" lon="6.85028">
        <ele>708</ele>
        <time>2012-04-22T06:09:27Z</time>
      </trkpt>
      <trkpt lat="43.69653" lon="6.85034">
        <ele>708</ele>
        <time>2012-04-22T06:09:37Z</time>
      </trkpt>
      <trkpt lat="43.69674" lon="6.8504">
        <ele>708</ele>
        <time>2012-04-22T06:09:47Z</time>
      </trkpt>
      <trkpt lat="43.69697" lon="6.85046">
        <ele>708</ele>
        <time>2012-04-22T06:09:57Z</time>
      </trkpt>
      <trkpt lat="43.69718" lon="6.85057">
        <ele>709</ele>
        <time>2012-04-22T06:10:07Z</time>
      </trkpt>
      <trkpt lat="43.69741" lon="6.85063">
        <ele>711</ele>
        <time>2012-04-22T06:10:17Z</time>
      </trkpt>
      <trkpt lat="43.69759" lon="6.85058">
        <ele>713</ele>
        <time>2012-04-22T06:10:27Z</time>
      </trkpt>
      <trkpt lat="43.69775" lon="6.85036">
        <ele>713</ele>
        <time>2012-04-22T06:10:37Z</time>
      </trkpt>
      <trkpt lat="43.6979" lon="6.85006">
        <ele>713</ele>
        <time>2012-04-22T06:10:47Z</time>
      </trkpt>
      <trkpt lat="43.698" lon="6.84983">
        <ele>713</ele>
        <time>2012-04-22T06:10:57Z</time>
      </trkpt>
      <trkpt lat="43.69826" lon="6.84984">
        <ele>713</ele>
        <time>2012-04-22T06:11:07Z</time>
      </trkpt>
      <trkpt lat="43.69868" lon="6.84968">
        <ele>713</ele>
        <time>2012-04-22T06:11:17Z</time>
      </trkpt>
      <trkpt lat="43.69898" lon="6.84944">
        <ele>713</ele>
        <time>2012-04-22T06:11:27Z</time>
      </trkpt>
      <trkpt lat="43.69927" lon="6.84932">
        <ele>713</ele>
        <time>2012-04-22T06:11:37Z</time>
      </trkpt>
      <trkpt lat="43.69951" lon="6.84915">
        <ele>713</ele>
        <time>2012-04-22T06:11:47Z</time>
      </trkpt>
      <trkpt lat="43.69964" lon="6.84886">
        <ele>714</ele>
        <time>2012-04-22T06:11:57Z</time>
      </trkpt>
      <trkpt lat="43.69976" lon="6.84862">
        <ele>714</ele>
        <time>2012-04-22T06:12:07Z</time>
      </trkpt>
      <trkpt lat="43.70001" lon="6.84871">
        <ele>714</ele>
        <time>2012-04-22T06:12:17Z</time>
      </trkpt>
      <trkpt lat="43.70024" lon="6.84877">
        <ele>717</ele>
        <time>2012-04-22T06:12:27Z</time>
      </trkpt>
      <trkpt lat="43.70047" lon="6.84887">
        <ele>719</ele>
        <time>2012-04-22T06:12:37Z</time>
      </trkpt>
      <trkpt lat="43.70069" lon="6.84896">
        <ele>721</ele>
        <time>2012-04-22T06:12:47Z</time>
      </trkpt>
      <trkpt lat="43.70089" lon="6.84902">
        <ele>724</ele>
        <time>2012-04-22T06:12:57Z</time>
      </trkpt>
      <trkpt lat="43.70111" lon="6.84897">
        <ele>726</ele>
        <time>2012-04-22T06:13:07Z</time>
      </trkpt>
      <trkpt lat="43.70132" lon="6.8488">
        <ele>727</ele>
        <time>2012-04-22T06:13:17Z</time>
      </trkpt>
      <trkpt lat="43.70152" lon="6.84858">
        <ele>727</ele>
        <time>2012-04-22T06:13:27Z</time>
      </trkpt>
      <trkpt lat="43.70168" lon="6.84836">
        <ele>727</ele>
        <time>2012-04-22T06:13:37Z</time>
      </trkpt>
      <trkpt lat="43.7019" lon="6.8482">
        <ele>727</ele>
        <time>2012-04-22T06:13:47Z</time>
      </trkpt>
      <trkpt lat="43.70215" lon="6.84818">
        <ele>728</ele>
        <time>2012-04-22T06:13:57Z</time>
      </trkpt>
      <trkpt lat="43.70238" lon="6.84829">
        <ele>733</ele>
        <time>2012-04-22T06:14:07Z</time>
      </trkpt>
      <trkpt lat="43.70266" lon="6.84842">
        <ele>737</ele>
        <time>2012-04-22T06:14:18Z</time>
      </trkpt>
      <trkpt lat="43.70294" lon="6.84847">
        <ele>741</ele>
        <time>2012-04-22T06:14:29Z</time>
      </trkpt>
      <trkpt lat="43.70311" lon="6.84865">
        <ele>742</ele>
        <time>2012-04-22T06:14:39Z</time>
      </trkpt>
      <trkpt lat="43.70312" lon="6.84895">
        <ele>742</ele>
        <time>2012-04-22T06:14:50Z</time>
      </trkpt>
      <trkpt lat="43.70313" lon="6.84926">
        <ele>747</ele>
        <time>2012-04-22T06:15:01Z</time>
      </trkpt>
      <trkpt lat="43.70311" lon="6.84955">
        <ele>750</ele>
        <time>2012-04-22T06:15:11Z</time>
      </trkpt>
      <trkpt lat="43.70301" lon="6.84987">
        <ele>755</ele>
        <time>2012-04-22T06:15:22Z</time>
      </trkpt>
      <trkpt lat="43.70286" lon="6.85007">
        <ele>758</ele>
        <time>2012-04-22T06:15:32Z</time>
      </trkpt>
      <trkpt lat="43.70273" lon="6.85026">
        <ele>758</ele>
        <time>2012-04-22T06:15:42Z</time>
      </trkpt>
      <trkpt lat="43.70257" lon="6.85047">
        <ele>758</ele>
        <time>2012-04-22T06:15:52Z</time>
      </trkpt>
      <trkpt lat="43.70239" lon="6.85071">
        <ele>758</ele>
        <time>2012-04-22T06:16:03Z</time>
      </trkpt>
      <trkpt lat="43.70225" lon="6.85096">
        <ele>759</ele>
        <time>2012-04-22T06:16:13Z</time>
      </trkpt>
      <trkpt lat="43.7021" lon="6.85116">
        <ele>761</ele>
        <time>2012-04-22T06:16:23Z</time>
      </trkpt>
      <trkpt lat="43.70195" lon="6.85139">
        <ele>763</ele>
        <time>2012-04-22T06:16:33Z</time>
      </trkpt>
      <trkpt lat="43.70178" lon="6.85164">
        <ele>765</ele>
        <time>2012-04-22T06:16:44Z</time>
      </trkpt>
      <trkpt lat="43.70161" lon="6.85187">
        <ele>767</ele>
        <time>2012-04-22T06:16:55Z</time>
      </trkpt>
      <trkpt lat="43.70147" lon="6.85211">
        <ele>768</ele>
        <time>2012-04-22T06:17:05Z</time>
      </trkpt>
      <trkpt lat="43.70131" lon="6.85231">
        <ele>768</ele>
        <time>2012-04-22T06:17:15Z</time>
      </trkpt>
      <trkpt lat="43.70116" lon="6.85253">
        <ele>768</ele>
        <time>2012-04-22T06:17:25Z</time>
      </trkpt>
      <trkpt lat="43.70099" lon="6.85273">
        <ele>771</ele>
        <time>2012-04-22T06:17:35Z</time>
      </trkpt>
      <trkpt lat="43.70083" lon="6.8529">
        <ele>773</ele>
        <time>2012-04-22T06:17:45Z</time>
      </trkpt>
      <trkpt lat="43.70068" lon="6.85309">
        <ele>775</ele>
        <time>2012-04-22T06:17:55Z</time>
      </trkpt>
      <trkpt lat="43.70054" lon="6.85328">
        <ele>776</ele>
        <time>2012-04-22T06:18:05Z</time>
      </trkpt>
      <trkpt lat="43.70042" lon="6.85349">
        <ele>778</ele>
        <time>2012-04-22T06:18:15Z</time>
      </trkpt>
      <trkpt lat="43.70028" lon="6.85371">
        <ele>780</ele>
        <time>2012-04-22T06:18:25Z</time>
      </trkpt>
      <trkpt lat="43.70015" lon="6.85393">
        <ele>783</ele>
        <time>2012-04-22T06:18:35Z</time>
      </trkpt>
      <trkpt lat="43.7" lon="6.85415">
        <ele>787</ele>
        <time>2012-04-22T06:18:45Z</time>
      </trkpt>
      <trkpt lat="43.69986" lon="6.85437">
        <ele>790</ele>
        <time>2012-04-22T06:18:55Z</time>
      </trkpt>
      <trkpt lat="43.69973" lon="6.85461">
        <ele>792</ele>
        <time>2012-04-22T06:19:05Z</time>
      </trkpt>
      <trkpt lat="43.69958" lon="6.85485">
        <ele>794</ele>
        <time>2012-04-22T06:19:15Z</time>
      </trkpt>
      <trkpt lat="43.69943" lon="6.85509">
        <ele>794</ele>
        <time>2012-04-22T06:19:25Z</time>
      </trkpt>
      <trkpt lat="43.69928" lon="6.85532">
        <ele>795</ele>
        <time>2012-04-22T06:19:35Z</time>
      </trkpt>
      <trkpt lat="43.69915" lon="6.85556">
        <ele>798</ele>
        <time>2012-04-22T06:19:45Z</time>
      </trkpt>
      <trkpt lat="43.69931" lon="6.85564">
        <ele>800</ele>
        <time>2012-04-22T06:19:55Z</time>
      </trkpt>
      <trkpt lat="43.69947" lon="6.85546">
        <ele>802</ele>
        <time>2012-04-22T06:20:05Z</time>
      </trkpt>
      <trkpt lat="43.69962" lon="6.85531">
        <ele>802</ele>
        <time>2012-04-22T06:20:15Z</time>
      </trkpt>
      <trkpt lat="43.69979" lon="6.85517">
        <ele>802</ele>
        <time>2012-04-22T06:20:25Z</time>
      </trkpt>
      <trkpt lat="43.69997" lon="6.85502">
        <ele>802</ele>
        <time>2012-04-22T06:20:35Z</time>
      </trkpt>
      <trkpt lat="43.70014" lon="6.85488">
        <ele>803</ele>
        <time>2012-04-22T06:20:45Z</time>
      </trkpt>
      <trkpt lat="43.70034" lon="6.85476">
        <ele>804</ele>
        <time>2012-04-22T06:20:55Z</time>
      </trkpt>
      <trkpt lat="43.70055" lon="6.85467">
        <ele>805</ele>
        <time>2012-04-22T06:21:05Z</time>
      </trkpt>
      <trkpt lat="43.70076" lon="6.85459">
        <ele>806</ele>
        <time>2012-04-22T06:21:15Z</time>
      </trkpt>
      <trkpt lat="43.70097" lon="6.85455">
        <ele>806</ele>
        <time>2012-04-22T06:21:25Z</time>
      </trkpt>
      <trkpt lat="43.70118" lon="6.85451">
        <ele>806</ele>
        <time>2012-04-22T06:21:35Z</time>
      </trkpt>
      <trkpt lat="43.70139" lon="6.85446">
        <ele>806</ele>
        <time>2012-04-22T06:21:45Z</time>
      </trkpt>
      <trkpt lat="43.70159" lon="6.85438">
        <ele>807</ele>
        <time>2012-04-22T06:21:55Z</time>
      </trkpt>
      <trkpt lat="43.70179" lon="6.8543">
        <ele>808</ele>
        <time>2012-04-22T06:22:05Z</time>
      </trkpt>
      <trkpt lat="43.70199" lon="6.85422">
        <ele>810</ele>
        <time>2012-04-22T06:22:15Z</time>
      </trkpt>
      <trkpt lat="43.70218" lon="6.85414">
        <ele>812</ele>
        <time>2012-04-22T06:22:25Z</time>
      </trkpt>
      <trkpt lat="43.70238" lon="6.85404">
        <ele>813</ele>
        <time>2012-04-22T06:22:35Z</time>
      </trkpt>
      <trkpt lat="43.70258" lon="6.85395">
        <ele>814</ele>
        <time>2012-04-22T06:22:45Z</time>
      </trkpt>
      <trkpt lat="43.70279" lon="6.85385">
        <ele>815</ele>
        <time>2012-04-22T06:22:55Z</time>
      </trkpt>
      <trkpt lat="43.703" lon="6.85375">
        <ele>816</ele>
        <time>2012-04-22T06:23:05Z</time>
      </trkpt>
      <trkpt lat="43.7032" lon="6.85365">
        <ele>818</ele>
        <time>2012-04-22T06:23:15Z</time>
      </trkpt>
      <trkpt lat="43.7034" lon="6.85357">
        <ele>821</ele>
        <time>2012-04-22T06:23:25Z</time>
      </trkpt>
      <trkpt lat="43.70361" lon="6.85347">
        <ele>823</ele>
        <time>2012-04-22T06:23:35Z</time>
      </trkpt>
      <trkpt lat="43.70382" lon="6.85339">
        <ele>825</ele>
        <time>2012-04-22T06:23:45Z</time>
      </trkpt>
      <trkpt lat="43.70402" lon="6.85329">
        <ele>827</ele>
        <time>2012-04-22T06:23:55Z</time>
      </trkpt>
      <trkpt lat="43.70422" lon="6.85322">
        <ele>829</ele>
        <time>2012-04-22T06:24:05Z</time>
      </trkpt>
      <trkpt lat="43.70444" lon="6.8532">
        <ele>830</ele>
        <time>2012-04-22T06:24:15Z</time>
      </trkpt>
      <trkpt lat="43.70465" lon="6.85321">
        <ele>832</ele>
        <time>2012-04-22T06:24:25Z</time>
      </trkpt>
      <trkpt lat="43.70487" lon="6.85325">
        <ele>834</ele>
        <time>2012-04-22T06:24:35Z</time>
      </trkpt>
      <trkpt lat="43.70508" lon="6.8533">
        <ele>836</ele>
        <time>2012-04-22T06:24:45Z</time>
      </trkpt>
      <trkpt lat="43.70526" lon="6.85343">
        <ele>838</ele>
        <time>2012-04-22T06:24:55Z</time>
      </trkpt>
      <trkpt lat="43.70542" lon="6.85363">
        <ele>839</ele>
        <time>2012-04-22T06:25:05Z</time>
      </trkpt>
      <trkpt lat="43.70554" lon="6.85387">
        <ele>841</ele>
        <time>2012-04-22T06:25:15Z</time>
      </trkpt>
      <trkpt lat="43.70562" lon="6.85413">
        <ele>843</ele>
        <time>2012-04-22T06:25:25Z</time>
      </trkpt>
      <trkpt lat="43.70568" lon="6.85441">
        <ele>846</ele>
        <time>2012-04-22T06:25:35Z</time>
      </trkpt>
      <trkpt lat="43.70574" lon="6.8547">
        <ele>849</ele>
        <time>2012-04-22T06:25:45Z</time>
      </trkpt>
      <trkpt lat="43.70579" lon="6.85499">
        <ele>853</ele>
        <time>2012-04-22T06:25:55Z</time>
      </trkpt>
      <trkpt lat="43.70584" lon="6.85528">
        <ele>855</ele>
        <time>2012-04-22T06:26:05Z</time>
      </trkpt>
      <trkpt lat="43.7059" lon="6.85555">
        <ele>856</ele>
        <time>2012-04-22T06:26:15Z</time>
      </trkpt>
      <trkpt lat="43.70591" lon="6.85583">
        <ele>856</ele>
        <time>2012-04-22T06:26:25Z</time>
      </trkpt>
      <trkpt lat="43.7059" lon="6.85613">
        <ele>856</ele>
        <time>2012-04-22T06:26:35Z</time>
      </trkpt>
      <trkpt lat="43.7059" lon="6.85643">
        <ele>859</ele>
        <time>2012-04-22T06:26:45Z</time>
      </trkpt>
      <trkpt lat="43.70591" lon="6.85674">
        <ele>863</ele>
        <time>2012-04-22T06:26:55Z</time>
      </trkpt>
      <trkpt lat="43.70592" lon="6.85704">
        <ele>865</ele>
        <time>2012-04-22T06:27:05Z</time>
      </trkpt>
      <trkpt lat="43.70596" lon="6.85734">
        <ele>870</ele>
        <time>2012-04-22T06:27:15Z</time>
      </trkpt>
      <trkpt lat="43.70601" lon="6.85764">
        <ele>875</ele>
        <time>2012-04-22T06:27:25Z</time>
      </trkpt>
      <trkpt lat="43.70607" lon="6.85793">
        <ele>876</ele>
        <time>2012-04-22T06:27:35Z</time>
      </trkpt>
      <trkpt lat="43.70613" lon="6.85825">
        <ele>877</ele>
        <time>2012-04-22T06:27:45Z</time>
      </trkpt>
      <trkpt lat="43.7062" lon="6.85857">
        <ele>877</ele>
        <time>2012-04-22T06:27:55Z</time>
      </trkpt>
      <trkpt lat="43.70627" lon="6.85889">
        <ele>877</ele>
        <time>2012-04-22T06:28:05Z</time>
      </trkpt>
      <trkpt lat="43.70632" lon="6.85921">
        <ele>877</ele>
        <time>2012-04-22T06:28:15Z</time>
      </trkpt>
      <trkpt lat="43.70635" lon="6.85952">
        <ele>877</ele>
        <time>2012-04-22T06:28:25Z</time>
      </trkpt>
      <trkpt lat="43.70637" lon="6.85983">
        <ele>877</ele>
        <time>2012-04-22T06:28:35Z</time>
      </trkpt>
      <trkpt lat="43.70641" lon="6.86014">
        <ele>878</ele>
        <time>2012-04-22T06:28:45Z</time>
      </trkpt>
      <trkpt lat="43.70645" lon="6.86046">
        <ele>878</ele>
        <time>2012-04-22T06:28:55Z</time>
      </trkpt>
      <trkpt lat="43.70653" lon="6.86076">
        <ele>879</ele>
        <time>2012-04-22T06:29:05Z</time>
      </trkpt>
      <trkpt lat="43.70673" lon="6.86093">
        <ele>879</ele>
        <time>2012-04-22T06:29:15Z</time>
      </trkpt>
      <trkpt lat="43.70697" lon="6.86078">
        <ele>879</ele>
        <time>2012-04-22T06:29:25Z</time>
      </trkpt>
      <trkpt lat="43.70708" lon="6.8605">
        <ele>879</ele>
        <time>2012-04-22T06:29:35Z</time>
      </trkpt>
      <trkpt lat="43.70716" lon="6.86022">
        <ele>880</ele>
        <time>2012-04-22T06:29:45Z</time>
      </trkpt>
      <trkpt lat="43.70724" lon="6.85995">
        <ele>883</ele>
        <time>2012-04-22T06:29:55Z</time>
      </trkpt>
      <trkpt lat="43.70733" lon="6.85967">
        <ele>886</ele>
        <time>2012-04-22T06:30:05Z</time>
      </trkpt>
      <trkpt lat="43.70742" lon="6.85938">
        <ele>889</ele>
        <time>2012-04-22T06:30:15Z</time>
      </trkpt>
      <trkpt lat="43.70747" lon="6.85908">
        <ele>890</ele>
        <time>2012-04-22T06:30:25Z</time>
      </trkpt>
      <trkpt lat="43.70751" lon="6.85877">
        <ele>892</ele>
        <time>2012-04-22T06:30:35Z</time>
      </trkpt>
      <trkpt lat="43.70756" lon="6.85846">
        <ele>894</ele>
        <time>2012-04-22T06:30:45Z</time>
      </trkpt>
      <trkpt lat="43.70761" lon="6.85816">
        <ele>899</ele>
        <time>2012-04-22T06:30:55Z</time>
      </trkpt>
      <trkpt lat="43.70766" lon="6.85785">
        <ele>903</ele>
        <time>2012-04-22T06:31:05Z</time>
      </trkpt>
      <trkpt lat="43.70773" lon="6.85756">
        <ele>907</ele>
        <time>2012-04-22T06:31:15Z</time>
      </trkpt>
      <trkpt lat="43.70782" lon="6.85728">
        <ele>911</ele>
        <time>2012-04-22T06:31:25Z</time>
      </trkpt>
      <trkpt lat="43.70792" lon="6.857">
        <ele>913</ele>
        <time>2012-04-22T06:31:35Z</time>
      </trkpt>
      <trkpt lat="43.70802" lon="6.85672">
        <ele>916</ele>
        <time>2012-04-22T06:31:45Z</time>
      </trkpt>
      <trkpt lat="43.70811" lon="6.85645">
        <ele>918</ele>
        <time>2012-04-22T06:31:55Z</time>
      </trkpt>
      <trkpt lat="43.70821" lon="6.85618">
        <ele>918</ele>
        <time>2012-04-22T06:32:05Z</time>
      </trkpt>
      <trkpt lat="43.7083" lon="6.8559">
        <ele>918</ele>
        <time>2012-04-22T06:32:15Z</time>
      </trkpt>
      <trkpt lat="43.70838" lon="6.85562">
        <ele>920</ele>
        <time>2012-04-22T06:32:25Z</time>
      </trkpt>
      <trkpt lat="43.7085" lon="6.85536">
        <ele>922</ele>
        <time>2012-04-22T06:32:35Z</time>
      </trkpt>
      <trkpt lat="43.70863" lon="6.85513">
        <ele>926</ele>
        <time>2012-04-22T06:32:45Z</time>
      </trkpt>
      <trkpt lat="43.70876" lon="6.85489">
        <ele>930</ele>
        <time>2012-04-22T06:32:55Z</time>
      </trkpt>
      <trkpt lat="43.70889" lon="6.85465">
        <ele>932</ele>
        <time>2012-04-22T06:33:05Z</time>
      </trkpt>
      <trkpt lat="43.70902" lon="6.85441">
        <ele>932</ele>
        <time>2012-04-22T06:33:15Z</time>
      </trkpt>
      <trkpt lat="43.70913" lon="6.85415">
        <ele>934</ele>
        <time>2012-04-22T06:33:25Z</time>
      </trkpt>
      <trkpt lat="43.70921" lon="6.85386">
        <ele>935</ele>
        <time>2012-04-22T06:33:35Z</time>
      </trkpt>
      <trkpt lat="43.70925" lon="6.85356">
        <ele>936</ele>
        <time>2012-04-22T06:33:45Z</time>
      </trkpt>
      <trkpt lat="43.70925" lon="6.85327">
        <ele>936</ele>
        <time>2012-04-22T06:33:55Z</time>
      </trkpt>
      <trkpt lat="43.70921" lon="6.85298">
        <ele>936</ele>
        <time>2012-04-22T06:34:05Z</time>
      </trkpt>
      <trkpt lat="43.70917" lon="6.85268">
        <ele>936</ele>
        <time>2012-04-22T06:34:15Z</time>
      </trkpt>
      <trkpt lat="43.7091" lon="6.85238">
        <ele>936</ele>
        <time>2012-04-22T06:34:25Z</time>
      </trkpt>
      <trkpt lat="43.70901" lon="6.8521">
        <ele>937</ele>
        <time>2012-04-22T06:34:35Z</time>
      </trkpt>
      <trkpt lat="43.70902" lon="6.85191">
        <ele>939</ele>
        <time>2012-04-22T06:34:45Z</time>
      </trkpt>
      <trkpt lat="43.70912" lon="6.85218">
        <ele>942</ele>
        <time>2012-04-22T06:34:55Z</time>
      </trkpt>
      <trkpt lat="43.70923" lon="6.85246">
        <ele>943</ele>
        <time>2012-04-22T06:35:05Z</time>
      </trkpt>
      <trkpt lat="43.70934" lon="6.85273">
        <ele>944</ele>
        <time>2012-04-22T06:35:15Z</time>
      </trkpt>
      <trkpt lat="43.70942" lon="6.85301">
        <ele>945</ele>
        <time>2012-04-22T06:35:25Z</time>
      </trkpt>
      <trkpt lat="43.70949" lon="6.8533">
        <ele>947</ele>
        <time>2012-04-22T06:35:35Z</time>
      </trkpt>
      <trkpt lat="43.70954" lon="6.85359">
        <ele>950</ele>
        <time>2012-04-22T06:35:45Z</time>
      </trkpt>
      <trkpt lat="43.70957" lon="6.85389">
        <ele>952</ele>
        <time>2012-04-22T06:35:55Z</time>
      </trkpt>
      <trkpt lat="43.70952" lon="6.85419">
        <ele>955</ele>
        <time>2012-04-22T06:36:05Z</time>
      </trkpt>
      <trkpt lat="43.70944" lon="6.85447">
        <ele>958</ele>
        <time>2012-04-22T06:36:15Z</time>
      </trkpt>
      <trkpt lat="43.70933" lon="6.85475">
        <ele>961</ele>
        <time>2012-04-22T06:36:25Z</time>
      </trkpt>
      <trkpt lat="43.70922" lon="6.85502">
        <ele>963</ele>
        <time>2012-04-22T06:36:35Z</time>
      </trkpt>
      <trkpt lat="43.70913" lon="6.85529">
        <ele>965</ele>
        <time>2012-04-22T06:36:45Z</time>
      </trkpt>
      <trkpt lat="43.70904" lon="6.85557">
        <ele>966</ele>
        <time>2012-04-22T06:36:55Z</time>
      </trkpt>
      <trkpt lat="43.70896" lon="6.85586">
        <ele>967</ele>
        <time>2012-04-22T06:37:05Z</time>
      </trkpt>
      <trkpt lat="43.70891" lon="6.85617">
        <ele>968</ele>
        <time>2012-04-22T06:37:15Z</time>
      </trkpt>
      <trkpt lat="43.70885" lon="6.85647">
        <ele>969</ele>
        <time>2012-04-22T06:37:25Z</time>
      </trkpt>
      <trkpt lat="43.7088" lon="6.85677">
        <ele>970</ele>
        <time>2012-04-22T06:37:35Z</time>
      </trkpt>
      <trkpt lat="43.70873" lon="6.85706">
        <ele>972</ele>
        <time>2012-04-22T06:37:45Z</time>
      </trkpt>
      <trkpt lat="43.70869" lon="6.85738">
        <ele>975</ele>
        <time>2012-04-22T06:37:56Z</time>
      </trkpt>
      <trkpt lat="43.70868" lon="6.85769">
        <ele>976</ele>
        <time>2012-04-22T06:38:06Z</time>
      </trkpt>
      <trkpt lat="43.70867" lon="6.85799">
        <ele>977</ele>
        <time>2012-04-22T06:38:16Z</time>
      </trkpt>
      <trkpt lat="43.70872" lon="6.85828">
        <ele>979</ele>
        <time>2012-04-22T06:38:26Z</time>
      </trkpt>
      <trkpt lat="43.70881" lon="6.85856">
        <ele>980</ele>
        <time>2012-04-22T06:38:36Z</time>
      </trkpt>
      <trkpt lat="43.70888" lon="6.85885">
        <ele>981</ele>
        <time>2012-04-22T06:38:46Z</time>
      </trkpt>
      <trkpt lat="43.70892" lon="6.85915">
        <ele>981</ele>
        <time>2012-04-22T06:38:56Z</time>
      </trkpt>
      <trkpt lat="43.70896" lon="6.85945">
        <ele>983</ele>
        <time>2012-04-22T06:39:06Z</time>
      </trkpt>
      <trkpt lat="43.70898" lon="6.85975">
        <ele>984</ele>
        <time>2012-04-22T06:39:16Z</time>
      </trkpt>
      <trkpt lat="43.70898" lon="6.86005">
        <ele>986</ele>
        <time>2012-04-22T06:39:26Z</time>
      </trkpt>
      <trkpt lat="43.70898" lon="6.86034">
        <ele>988</ele>
        <time>2012-04-22T06:39:36Z</time>
      </trkpt>
      <trkpt lat="43.70898" lon="6.86064">
        <ele>990</ele>
        <time>2012-04-22T06:39:46Z</time>
      </trkpt>
      <trkpt lat="43.70898" lon="6.86092">
        <ele>992</ele>
        <time>2012-04-22T06:39:56Z</time>
      </trkpt>
      <trkpt lat="43.70898" lon="6.86121">
        <ele>995</ele>
        <time>2012-04-22T06:40:06Z</time>
      </trkpt>
      <trkpt lat="43.70896" lon="6.86151">
        <ele>998</ele>
        <time>2012-04-22T06:40:16Z</time>
      </trkpt>
      <trkpt lat="43.70894" lon="6.8618">
        <ele>999</ele>
        <time>2012-04-22T06:40:26Z</time>
      </trkpt>
      <trkpt lat="43.70892" lon="6.86211">
        <ele>1001</ele>
        <time>2012-04-22T06:40:36Z</time>
      </trkpt>
      <trkpt lat="43.70891" lon="6.86241">
        <ele>1002</ele>
        <time>2012-04-22T06:40:46Z</time>
      </trkpt>
      <trkpt lat="43.70892" lon="6.86272">
        <ele>1003</ele>
        <time>2012-04-22T06:40:56Z</time>
      </trkpt>
      <trkpt lat="43.70894" lon="6.86301">
        <ele>1005</ele>
        <time>2012-04-22T06:41:06Z</time>
      </trkpt>
      <trkpt lat="43.70897" lon="6.86332">
        <ele>1007</ele>
        <time>2012-04-22T06:41:16Z</time>
      </trkpt>
      <trkpt lat="43.709" lon="6.86362">
        <ele>1007</ele>
        <time>2012-04-22T06:41:26Z</time>
      </trkpt>
      <trkpt lat="43.70903" lon="6.86391">
        <ele>1008</ele>
        <time>2012-04-22T06:41:36Z</time>
      </trkpt>
      <trkpt lat="43.70906" lon="6.86421">
        <ele>1009</ele>
        <time>2012-04-22T06:41:46Z</time>
      </trkpt>
      <trkpt lat="43.7091" lon="6.8645">
        <ele>1011</ele>
        <time>2012-04-22T06:41:56Z</time>
      </trkpt>
      <trkpt lat="43.70912" lon="6.86478">
        <ele>1012</ele>
        <time>2012-04-22T06:42:06Z</time>
      </trkpt>
      <trkpt lat="43.70916" lon="6.86507">
        <ele>1014</ele>
        <time>2012-04-22T06:42:16Z</time>
      </trkpt>
      <trkpt lat="43.70922" lon="6.86535">
        <ele>1015</ele>
        <time>2012-04-22T06:42:26Z</time>
      </trkpt>
      <trkpt lat="43.70936" lon="6.86555">
        <ele>1018</ele>
        <time>2012-04-22T06:42:36Z</time>
      </trkpt>
      <trkpt lat="43.70954" lon="6.86571">
        <ele>1020</ele>
        <time>2012-04-22T06:42:46Z</time>
      </trkpt>
      <trkpt lat="43.70975" lon="6.86581">
        <ele>1021</ele>
        <time>2012-04-22T06:42:56Z</time>
      </trkpt>
      <trkpt lat="43.70996" lon="6.86585">
        <ele>1021</ele>
        <time>2012-04-22T06:43:06Z</time>
      </trkpt>
      <trkpt lat="43.71017" lon="6.86586">
        <ele>1022</ele>
        <time>2012-04-22T06:43:16Z</time>
      </trkpt>
      <trkpt lat="43.71038" lon="6.86589">
        <ele>1023</ele>
        <time>2012-04-22T06:43:26Z</time>
      </trkpt>
      <trkpt lat="43.71057" lon="6.86591">
        <ele>1025</ele>
        <time>2012-04-22T06:43:36Z</time>
      </trkpt>
      <trkpt lat="43.71078" lon="6.86588">
        <ele>1027</ele>
        <time>2012-04-22T06:43:46Z</time>
      </trkpt>
      <trkpt lat="43.71098" lon="6.8658">
        <ele>1028</ele>
        <time>2012-04-22T06:43:56Z</time>
      </trkpt>
      <trkpt lat="43.71116" lon="6.86567">
        <ele>1029</ele>
        <time>2012-04-22T06:44:06Z</time>
      </trkpt>
      <trkpt lat="43.71134" lon="6.86552">
        <ele>1032</ele>
        <time>2012-04-22T06:44:16Z</time>
      </trkpt>
      <trkpt lat="43.71149" lon="6.8654">
        <ele>1033</ele>
        <time>2012-04-22T06:44:27Z</time>
      </trkpt>
      <trkpt lat="43.71151" lon="6.86538">
        <ele>1033</ele>
        <time>2012-04-22T06:44:40Z</time>
      </trkpt>
      <trkpt lat="43.71163" lon="6.86526">
        <ele>1033</ele>
        <time>2012-04-22T06:44:50Z</time>
      </trkpt>
      <trkpt lat="43.71172" lon="6.86524">
        <ele>1033</ele>
        <time>2012-04-22T06:45:02Z</time>
      </trkpt>
      <trkpt lat="43.71172" lon="6.86527">
        <ele>1033</ele>
        <time>2012-04-22T06:45:22Z</time>
      </trkpt>
      <trkpt lat="43.71179" lon="6.86531">
        <ele>1033</ele>
        <time>2012-04-22T06:45:33Z</time>
      </trkpt>
      <trkpt lat="43.71182" lon="6.86529">
        <ele>1033</ele>
        <time>2012-04-22T06:45:57Z</time>
      </trkpt>
      <trkpt lat="43.7118" lon="6.86526">
        <ele>1036</ele>
        <time>2012-04-22T06:46:10Z</time>
      </trkpt>
      <trkpt lat="43.71175" lon="6.8652">
        <ele>1042</ele>
        <time>2012-04-22T06:46:33Z</time>
      </trkpt>
      <trkpt lat="43.71175" lon="6.86521">
        <ele>1039</ele>
        <time>2012-04-22T06:46:55Z</time>
      </trkpt>
      <trkpt lat="43.71175" lon="6.86523">
        <ele>1034</ele>
        <time>2012-04-22T06:47:08Z</time>
      </trkpt>
      <trkpt lat="43.71176" lon="6.86521">
        <ele>1031</ele>
        <time>2012-04-22T06:47:32Z</time>
      </trkpt>
      <trkpt lat="43.71192" lon="6.86503">
        <ele>1031</ele>
        <time>2012-04-22T06:47:42Z</time>
      </trkpt>
      <trkpt lat="43.71207" lon="6.86489">
        <ele>1031</ele>
        <time>2012-04-22T06:47:52Z</time>
      </trkpt>
      <trkpt lat="43.71225" lon="6.86475">
        <ele>1031</ele>
        <time>2012-04-22T06:48:02Z</time>
      </trkpt>
      <trkpt lat="43.71238" lon="6.86464">
        <ele>1035</ele>
        <time>2012-04-22T06:48:12Z</time>
      </trkpt>
      <trkpt lat="43.71247" lon="6.86459">
        <ele>1037</ele>
        <time>2012-04-22T06:48:31Z</time>
      </trkpt>
      <trkpt lat="43.71254" lon="6.86453">
        <ele>1037</ele>
        <time>2012-04-22T06:48:42Z</time>
      </trkpt>
      <trkpt lat="43.71274" lon="6.86431">
        <ele>1037</ele>
        <time>2012-04-22T06:48:52Z</time>
      </trkpt>
      <trkpt lat="43.71293" lon="6.86409">
        <ele>1041</ele>
        <time>2012-04-22T06:49:02Z</time>
      </trkpt>
      <trkpt lat="43.71312" lon="6.86381">
        <ele>1043</ele>
        <time>2012-04-22T06:49:12Z</time>
      </trkpt>
      <trkpt lat="43.7133" lon="6.86352">
        <ele>1044</ele>
        <time>2012-04-22T06:49:22Z</time>
      </trkpt>
      <trkpt lat="43.7135" lon="6.86312">
        <ele>1044</ele>
        <time>2012-04-22T06:49:32Z</time>
      </trkpt>
      <trkpt lat="43.71383" lon="6.8629">
        <ele>1044</ele>
        <time>2012-04-22T06:49:42Z</time>
      </trkpt>
      <trkpt lat="43.71425" lon="6.86332">
        <ele>1040</ele>
        <time>2012-04-22T06:49:52Z</time>
      </trkpt>
      <trkpt lat="43.71474" lon="6.86374">
        <ele>1036</ele>
        <time>2012-04-22T06:50:02Z</time>
      </trkpt>
      <trkpt lat="43.71529" lon="6.86413">
        <ele>1033</ele>
        <time>2012-04-22T06:50:12Z</time>
      </trkpt>
      <trkpt lat="43.71588" lon="6.86452">
        <ele>1028</ele>
        <time>2012-04-22T06:50:22Z</time>
      </trkpt>
      <trkpt lat="43.71653" lon="6.86474">
        <ele>1023</ele>
        <time>2012-04-22T06:50:32Z</time>
      </trkpt>
      <trkpt lat="43.71724" lon="6.8649">
        <ele>1017</ele>
        <time>2012-04-22T06:50:42Z</time>
      </trkpt>
      <trkpt lat="43.71789" lon="6.86506">
        <ele>1014</ele>
        <time>2012-04-22T06:50:52Z</time>
      </trkpt>
      <trkpt lat="43.71848" lon="6.86517">
        <ele>1011</ele>
        <time>2012-04-22T06:51:02Z</time>
      </trkpt>
      <trkpt lat="43.71905" lon="6.86511">
        <ele>1007</ele>
        <time>2012-04-22T06:51:12Z</time>
      </trkpt>
      <trkpt lat="43.71965" lon="6.8649">
        <ele>1006</ele>
        <time>2012-04-22T06:51:22Z</time>
      </trkpt>
      <trkpt lat="43.72023" lon="6.86475">
        <ele>1005</ele>
        <time>2012-04-22T06:51:32Z</time>
      </trkpt>
      <trkpt lat="43.72076" lon="6.86482">
        <ele>1005</ele>
        <time>2012-04-22T06:51:42Z</time>
      </trkpt>
      <trkpt lat="43.72081" lon="6.86484">
        <ele>1003</ele>
        <time>2012-04-22T06:51:52Z</time>
      </trkpt>
      <trkpt lat="43.7208" lon="6.86488">
        <ele>997</ele>
        <time>2012-04-22T06:52:02Z</time>
      </trkpt>
      <trkpt lat="43.72096" lon="6.86486">
        <ele>988</ele>
        <time>2012-04-22T06:52:12Z</time>
      </trkpt>
      <trkpt lat="43.72165" lon="6.86482">
        <ele>987</ele>
        <time>2012-04-22T06:52:22Z</time>
      </trkpt>
      <trkpt lat="43.72245" lon="6.86483">
        <ele>982</ele>
        <time>2012-04-22T06:52:32Z</time>
      </trkpt>
      <trkpt lat="43.72328" lon="6.86481">
        <ele>975</ele>
        <time>2012-04-22T06:52:42Z</time>
      </trkpt>
      <trkpt lat="43.72383" lon="6.86483">
        <ele>965</ele>
        <time>2012-04-22T06:52:52Z</time>
      </trkpt>
      <trkpt lat="43.72406" lon="6.86483">
        <ele>960</ele>
        <time>2012-04-22T06:53:02Z</time>
      </trkpt>
      <trkpt lat="43.72442" lon="6.86528">
        <ele>953</ele>
        <time>2012-04-22T06:53:12Z</time>
      </trkpt>
      <trkpt lat="43.72453" lon="6.86558">
        <ele>945</ele>
        <time>2012-04-22T06:53:22Z</time>
      </trkpt>
      <trkpt lat="43.72449" lon="6.86466">
        <ele>944</ele>
        <time>2012-04-22T06:53:32Z</time>
      </trkpt>
      <trkpt lat="43.7245" lon="6.86381">
        <ele>936</ele>
        <time>2012-04-22T06:53:42Z</time>
      </trkpt>
      <trkpt lat="43.72458" lon="6.86384">
        <ele>921</ele>
        <time>2012-04-22T06:53:52Z</time>
      </trkpt>
      <trkpt lat="43.72471" lon="6.86393">
        <ele>913</ele>
        <time>2012-04-22T06:54:05Z</time>
      </trkpt>
      <trkpt lat="43.72479" lon="6.86403">
        <ele>910</ele>
        <time>2012-04-22T06:54:15Z</time>
      </trkpt>
      <trkpt lat="43.72511" lon="6.86393">
        <ele>912</ele>
        <time>2012-04-22T06:54:25Z</time>
      </trkpt>
      <trkpt lat="43.72557" lon="6.86382">
        <ele>918</ele>
        <time>2012-04-22T06:54:35Z</time>
      </trkpt>
      <trkpt lat="43.7256" lon="6.86381">
        <ele>917</ele>
        <time>2012-04-22T06:54:46Z</time>
      </trkpt>
      <trkpt lat="43.72564" lon="6.86381">
        <ele>911</ele>
        <time>2012-04-22T06:54:58Z</time>
      </trkpt>
      <trkpt lat="43.7257" lon="6.86369">
        <ele>904</ele>
        <time>2012-04-22T06:55:08Z</time>
      </trkpt>
      <trkpt lat="43.72585" lon="6.8636">
        <ele>892</ele>
        <time>2012-04-22T06:55:20Z</time>
      </trkpt>
      <trkpt lat="43.72579" lon="6.86337">
        <ele>887</ele>
        <time>2012-04-22T06:55:30Z</time>
      </trkpt>
      <trkpt lat="43.72571" lon="6.86324">
        <ele>885</ele>
        <time>2012-04-22T06:55:40Z</time>
      </trkpt>
      <trkpt lat="43.72571" lon="6.86315">
        <ele>885</ele>
        <time>2012-04-22T06:55:50Z</time>
      </trkpt>
      <trkpt lat="43.72559" lon="6.8629">
        <ele>885</ele>
        <time>2012-04-22T06:56:00Z</time>
      </trkpt>
      <trkpt lat="43.72556" lon="6.86257">
        <ele>881</ele>
        <time>2012-04-22T06:56:10Z</time>
      </trkpt>
      <trkpt lat="43.72555" lon="6.86222">
        <ele>881</ele>
        <time>2012-04-22T06:56:20Z</time>
      </trkpt>
      <trkpt lat="43.72545" lon="6.86203">
        <ele>881</ele>
        <time>2012-04-22T06:56:30Z</time>
      </trkpt>
      <trkpt lat="43.72532" lon="6.86187">
        <ele>886</ele>
        <time>2012-04-22T06:56:41Z</time>
      </trkpt>
      <trkpt lat="43.72533" lon="6.86182">
        <ele>887</ele>
        <time>2012-04-22T06:56:51Z</time>
      </trkpt>
      <trkpt lat="43.72532" lon="6.86178">
        <ele>885</ele>
        <time>2012-04-22T06:57:04Z</time>
      </trkpt>
      <trkpt lat="43.72531" lon="6.86176">
        <ele>884</ele>
        <time>2012-04-22T06:57:16Z</time>
      </trkpt>
      <trkpt lat="43.7253" lon="6.86174">
        <ele>881</ele>
        <time>2012-04-22T06:57:23Z</time>
      </trkpt>
      <trkpt lat="43.7253" lon="6.86175">
        <ele>880</ele>
        <time>2012-04-22T06:57:48Z</time>
      </trkpt>
      <trkpt lat="43.7253" lon="6.86173">
        <ele>884</ele>
        <time>2012-04-22T06:57:49Z</time>
      </trkpt>
      <trkpt lat="43.72531" lon="6.86172">
        <ele>880</ele>
        <time>2012-04-22T06:58:04Z</time>
      </trkpt>
      <trkpt lat="43.7253" lon="6.86173">
        <ele>892</ele>
        <time>2012-04-22T06:58:10Z</time>
      </trkpt>
      <trkpt lat="43.72525" lon="6.86171">
        <ele>890</ele>
        <time>2012-04-22T06:58:22Z</time>
      </trkpt>
      <trkpt lat="43.72526" lon="6.86171">
        <ele>889</ele>
        <time>2012-04-22T06:58:38Z</time>
      </trkpt>
      <trkpt lat="43.7253" lon="6.86187">
        <ele>891</ele>
        <time>2012-04-22T06:58:49Z</time>
      </trkpt>
      <trkpt lat="43.72541" lon="6.86201">
        <ele>894</ele>
        <time>2012-04-22T06:59:00Z</time>
      </trkpt>
      <trkpt lat="43.72549" lon="6.86207">
        <ele>894</ele>
        <time>2012-04-22T06:59:20Z</time>
      </trkpt>
      <trkpt lat="43.72545" lon="6.86202">
        <ele>892</ele>
        <time>2012-04-22T06:59:31Z</time>
      </trkpt>
      <trkpt lat="43.72538" lon="6.86189">
        <ele>891</ele>
        <time>2012-04-22T06:59:41Z</time>
      </trkpt>
      <trkpt lat="43.72534" lon="6.8618">
        <ele>891</ele>
        <time>2012-04-22T06:59:53Z</time>
      </trkpt>
      <trkpt lat="43.72534" lon="6.8618">
        <ele>890</ele>
        <time>2012-04-22T07:00:06Z</time>
      </trkpt>
      <trkpt lat="43.72521" lon="6.86168">
        <ele>890</ele>
        <time>2012-04-22T07:00:16Z</time>
      </trkpt>
      <trkpt lat="43.725" lon="6.86136">
        <ele>890</ele>
        <time>2012-04-22T07:00:26Z</time>
      </trkpt>
      <trkpt lat="43.72494" lon="6.86098">
        <ele>893</ele>
        <time>2012-04-22T07:00:36Z</time>
      </trkpt>
      <trkpt lat="43.72481" lon="6.86056">
        <ele>894</ele>
        <time>2012-04-22T07:00:46Z</time>
      </trkpt>
      <trkpt lat="43.72462" lon="6.86008">
        <ele>895</ele>
        <time>2012-04-22T07:00:56Z</time>
      </trkpt>
      <trkpt lat="43.7244" lon="6.85963">
        <ele>897</ele>
        <time>2012-04-22T07:01:06Z</time>
      </trkpt>
      <trkpt lat="43.7241" lon="6.85955">
        <ele>897</ele>
        <time>2012-04-22T07:01:16Z</time>
      </trkpt>
      <trkpt lat="43.72404" lon="6.85953">
        <ele>897</ele>
        <time>2012-04-22T07:01:33Z</time>
      </trkpt>
      <trkpt lat="43.72402" lon="6.85952">
        <ele>897</ele>
        <time>2012-04-22T07:01:45Z</time>
      </trkpt>
      <trkpt lat="43.72399" lon="6.85953">
        <ele>895</ele>
        <time>2012-04-22T07:01:59Z</time>
      </trkpt>
      <trkpt lat="43.72398" lon="6.8595">
        <ele>888</ele>
        <time>2012-04-22T07:02:21Z</time>
      </trkpt>
      <trkpt lat="43.72397" lon="6.85951">
        <ele>885</ele>
        <time>2012-04-22T07:02:35Z</time>
      </trkpt>
      <trkpt lat="43.72397" lon="6.85951">
        <ele>886</ele>
        <time>2012-04-22T07:02:36Z</time>
      </trkpt>
      <trkpt lat="43.72396" lon="6.85953">
        <ele>886</ele>
        <time>2012-04-22T07:02:52Z</time>
      </trkpt>
      <trkpt lat="43.72395" lon="6.85954">
        <ele>890</ele>
        <time>2012-04-22T07:03:14Z</time>
      </trkpt>
      <trkpt lat="43.72395" lon="6.85946">
        <ele>890</ele>
        <time>2012-04-22T07:03:26Z</time>
      </trkpt>
      <trkpt lat="43.72396" lon="6.8594">
        <ele>890</ele>
        <time>2012-04-22T07:03:39Z</time>
      </trkpt>
      <trkpt lat="43.72397" lon="6.85939">
        <ele>887</ele>
        <time>2012-04-22T07:03:56Z</time>
      </trkpt>
      <trkpt lat="43.72398" lon="6.85942">
        <ele>887</ele>
        <time>2012-04-22T07:04:06Z</time>
      </trkpt>
      <trkpt lat="43.724" lon="6.85944">
        <ele>887</ele>
        <time>2012-04-22T07:04:21Z</time>
      </trkpt>
      <trkpt lat="43.72398" lon="6.85948">
        <ele>890</ele>
        <time>2012-04-22T07:04:22Z</time>
      </trkpt>
      <trkpt lat="43.72397" lon="6.85951">
        <ele>896</ele>
        <time>2012-04-22T07:04:23Z</time>
      </trkpt>
      <trkpt lat="43.72397" lon="6.85956">
        <ele>896</ele>
        <time>2012-04-22T07:04:34Z</time>
      </trkpt>
      <trkpt lat="43.72397" lon="6.85959">
        <ele>899</ele>
        <time>2012-04-22T07:04:56Z</time>
      </trkpt>
      <trkpt lat="43.72398" lon="6.85959">
        <ele>899</ele>
        <time>2012-04-22T07:05:10Z</time>
      </trkpt>
      <trkpt lat="43.72399" lon="6.85959">
        <ele>896</ele>
        <time>2012-04-22T07:05:29Z</time>
      </trkpt>
      <trkpt lat="43.724" lon="6.85957">
        <ele>896</ele>
        <time>2012-04-22T07:05:41Z</time>
      </trkpt>
      <trkpt lat="43.72403" lon="6.85954">
        <ele>896</ele>
        <time>2012-04-22T07:05:56Z</time>
      </trkpt>
      <trkpt lat="43.72401" lon="6.8596">
        <ele>896</ele>
        <time>2012-04-22T07:06:11Z</time>
      </trkpt>
      <trkpt lat="43.724" lon="6.8596">
        <ele>896</ele>
        <time>2012-04-22T07:06:24Z</time>
      </trkpt>
      <trkpt lat="43.724" lon="6.85961">
        <ele>896</ele>
        <time>2012-04-22T07:06:37Z</time>
      </trkpt>
      <trkpt lat="43.72402" lon="6.85961">
        <ele>898</ele>
        <time>2012-04-22T07:06:49Z</time>
      </trkpt>
      <trkpt lat="43.72404" lon="6.85958">
        <ele>899</ele>
        <time>2012-04-22T07:07:03Z</time>
      </trkpt>
      <trkpt lat="43.72404" lon="6.85959">
        <ele>899</ele>
        <time>2012-04-22T07:07:24Z</time>
      </trkpt>
      <trkpt lat="43.72405" lon="6.85959">
        <ele>900</ele>
        <time>2012-04-22T07:07:34Z</time>
      </trkpt>
      <trkpt lat="43.72406" lon="6.85956">
        <ele>901</ele>
        <time>2012-04-22T07:07:47Z</time>
      </trkpt>
      <trkpt lat="43.72407" lon="6.85955">
        <ele>901</ele>
        <time>2012-04-22T07:07:58Z</time>
      </trkpt>
      <trkpt lat="43.72409" lon="6.85952">
        <ele>901</ele>
        <time>2012-04-22T07:08:10Z</time>
      </trkpt>
      <trkpt lat="43.72411" lon="6.85949">
        <ele>901</ele>
        <time>2012-04-22T07:08:20Z</time>
      </trkpt>
      <trkpt lat="43.72412" lon="6.85946">
        <ele>901</ele>
        <time>2012-04-22T07:08:40Z</time>
      </trkpt>
      <trkpt lat="43.72411" lon="6.85947">
        <ele>897</ele>
        <time>2012-04-22T07:08:52Z</time>
      </trkpt>
      <trkpt lat="43.72409" lon="6.85947">
        <ele>893</ele>
        <time>2012-04-22T07:09:11Z</time>
      </trkpt>
      <trkpt lat="43.72407" lon="6.85946">
        <ele>892</ele>
        <time>2012-04-22T07:09:26Z</time>
      </trkpt>
      <trkpt lat="43.72409" lon="6.85941">
        <ele>891</ele>
        <time>2012-04-22T07:09:36Z</time>
      </trkpt>
      <trkpt lat="43.72411" lon="6.85941">
        <ele>888</ele>
        <time>2012-04-22T07:09:55Z</time>
      </trkpt>
      <trkpt lat="43.7241" lon="6.85945">
        <ele>887</ele>
        <time>2012-04-22T07:10:07Z</time>
      </trkpt>
      <trkpt lat="43.72407" lon="6.85944">
        <ele>884</ele>
        <time>2012-04-22T07:10:27Z</time>
      </trkpt>
      <trkpt lat="43.72406" lon="6.85948">
        <ele>884</ele>
        <time>2012-04-22T07:10:40Z</time>
      </trkpt>
      <trkpt lat="43.72403" lon="6.85952">
        <ele>886</ele>
        <time>2012-04-22T07:11:01Z</time>
      </trkpt>
      <trkpt lat="43.72402" lon="6.85955">
        <ele>886</ele>
        <time>2012-04-22T07:11:15Z</time>
      </trkpt>
      <trkpt lat="43.72401" lon="6.85957">
        <ele>886</ele>
        <time>2012-04-22T07:11:25Z</time>
      </trkpt>
      <trkpt lat="43.72399" lon="6.85957">
        <ele>886</ele>
        <time>2012-04-22T07:11:38Z</time>
      </trkpt>
      <trkpt lat="43.72398" lon="6.85957">
        <ele>890</ele>
        <time>2012-04-22T07:11:50Z</time>
      </trkpt>
      <trkpt lat="43.7241" lon="6.8595">
        <ele>893</ele>
        <time>2012-04-22T07:12:00Z</time>
      </trkpt>
      <trkpt lat="43.72427" lon="6.85943">
        <ele>897</ele>
        <time>2012-04-22T07:12:10Z</time>
      </trkpt>
      <trkpt lat="43.72435" lon="6.85932">
        <ele>900</ele>
        <time>2012-04-22T07:12:20Z</time>
      </trkpt>
      <trkpt lat="43.72425" lon="6.85916">
        <ele>904</ele>
        <time>2012-04-22T07:12:30Z</time>
      </trkpt>
      <trkpt lat="43.72414" lon="6.85904">
        <ele>904</ele>
        <time>2012-04-22T07:12:40Z</time>
      </trkpt>
      <trkpt lat="43.72399" lon="6.85897">
        <ele>904</ele>
        <time>2012-04-22T07:12:50Z</time>
      </trkpt>
      <trkpt lat="43.72383" lon="6.85885">
        <ele>909</ele>
        <time>2012-04-22T07:13:00Z</time>
      </trkpt>
      <trkpt lat="43.7239" lon="6.85872">
        <ele>909</ele>
        <time>2012-04-22T07:13:10Z</time>
      </trkpt>
      <trkpt lat="43.72409" lon="6.85867">
        <ele>909</ele>
        <time>2012-04-22T07:13:20Z</time>
      </trkpt>
      <trkpt lat="43.72427" lon="6.85873">
        <ele>916</ele>
        <time>2012-04-22T07:13:30Z</time>
      </trkpt>
      <trkpt lat="43.7244" lon="6.85887">
        <ele>920</ele>
        <time>2012-04-22T07:13:40Z</time>
      </trkpt>
      <trkpt lat="43.72449" lon="6.85892">
        <ele>922</ele>
        <time>2012-04-22T07:13:50Z</time>
      </trkpt>
      <trkpt lat="43.72453" lon="6.85894">
        <ele>922</ele>
        <time>2012-04-22T07:14:00Z</time>
      </trkpt>
      <trkpt lat="43.72466" lon="6.85904">
        <ele>922</ele>
        <time>2012-04-22T07:14:10Z</time>
      </trkpt>
      <trkpt lat="43.72482" lon="6.85911">
        <ele>924</ele>
        <time>2012-04-22T07:14:20Z</time>
      </trkpt>
      <trkpt lat="43.72498" lon="6.8592">
        <ele>924</ele>
        <time>2012-04-22T07:14:30Z</time>
      </trkpt>
      <trkpt lat="43.72512" lon="6.85929">
        <ele>924</ele>
        <time>2012-04-22T07:14:40Z</time>
      </trkpt>
      <trkpt lat="43.72529" lon="6.85937">
        <ele>924</ele>
        <time>2012-04-22T07:14:50Z</time>
      </trkpt>
      <trkpt lat="43.72543" lon="6.85943">
        <ele>930</ele>
        <time>2012-04-22T07:15:00Z</time>
      </trkpt>
      <trkpt lat="43.72556" lon="6.85949">
        <ele>935</ele>
        <time>2012-04-22T07:15:10Z</time>
      </trkpt>
      <trkpt lat="43.72571" lon="6.85951">
        <ele>940</ele>
        <time>2012-04-22T07:15:20Z</time>
      </trkpt>
      <trkpt lat="43.72586" lon="6.85953">
        <ele>943</ele>
        <time>2012-04-22T07:15:30Z</time>
      </trkpt>
      <trkpt lat="43.72601" lon="6.85954">
        <ele>946</ele>
        <time>2012-04-22T07:15:40Z</time>
      </trkpt>
      <trkpt lat="43.72616" lon="6.85953">
        <ele>946</ele>
        <time>2012-04-22T07:15:50Z</time>
      </trkpt>
      <trkpt lat="43.72619" lon="6.85942">
        <ele>946</ele>
        <time>2012-04-22T07:16:01Z</time>
      </trkpt>
      <trkpt lat="43.72607" lon="6.85932">
        <ele>945</ele>
        <time>2012-04-22T07:16:12Z</time>
      </trkpt>
      <trkpt lat="43.72589" lon="6.8592">
        <ele>945</ele>
        <time>2012-04-22T07:16:22Z</time>
      </trkpt>
      <trkpt lat="43.72573" lon="6.85906">
        <ele>945</ele>
        <time>2012-04-22T07:16:32Z</time>
      </trkpt>
      <trkpt lat="43.72561" lon="6.8589">
        <ele>946</ele>
        <time>2012-04-22T07:16:42Z</time>
      </trkpt>
      <trkpt lat="43.72552" lon="6.85877">
        <ele>949</ele>
        <time>2012-04-22T07:16:52Z</time>
      </trkpt>
      <trkpt lat="43.7254" lon="6.85859">
        <ele>950</ele>
        <time>2012-04-22T07:17:02Z</time>
      </trkpt>
      <trkpt lat="43.7253" lon="6.8584">
        <ele>950</ele>
        <time>2012-04-22T07:17:12Z</time>
      </trkpt>
      <trkpt lat="43.72519" lon="6.85825">
        <ele>954</ele>
        <time>2012-04-22T07:17:22Z</time>
      </trkpt>
      <trkpt lat="43.72508" lon="6.8581">
        <ele>959</ele>
        <time>2012-04-22T07:17:32Z</time>
      </trkpt>
      <trkpt lat="43.72498" lon="6.85795">
        <ele>962</ele>
        <time>2012-04-22T07:17:43Z</time>
      </trkpt>
      <trkpt lat="43.7249" lon="6.85777">
        <ele>966</ele>
        <time>2012-04-22T07:17:53Z</time>
      </trkpt>
      <trkpt lat="43.72482" lon="6.85759">
        <ele>969</ele>
        <time>2012-04-22T07:18:03Z</time>
      </trkpt>
      <trkpt lat="43.72474" lon="6.85738">
        <ele>970</ele>
        <time>2012-04-22T07:18:13Z</time>
      </trkpt>
      <trkpt lat="43.72466" lon="6.85717">
        <ele>970</ele>
        <time>2012-04-22T07:18:24Z</time>
      </trkpt>
      <trkpt lat="43.7246" lon="6.85696">
        <ele>970</ele>
        <time>2012-04-22T07:18:34Z</time>
      </trkpt>
      <trkpt lat="43.72457" lon="6.85673">
        <ele>967</ele>
        <time>2012-04-22T07:18:44Z</time>
      </trkpt>
      <trkpt lat="43.72453" lon="6.85651">
        <ele>966</ele>
        <time>2012-04-22T07:18:54Z</time>
      </trkpt>
      <trkpt lat="43.7245" lon="6.85629">
        <ele>966</ele>
        <time>2012-04-22T07:19:04Z</time>
      </trkpt>
      <trkpt lat="43.72446" lon="6.85612">
        <ele>966</ele>
        <time>2012-04-22T07:19:14Z</time>
      </trkpt>
      <trkpt lat="43.7244" lon="6.85591">
        <ele>968</ele>
        <time>2012-04-22T07:19:24Z</time>
      </trkpt>
      <trkpt lat="43.72438" lon="6.8557">
        <ele>970</ele>
        <time>2012-04-22T07:19:34Z</time>
      </trkpt>
      <trkpt lat="43.72437" lon="6.85547">
        <ele>972</ele>
        <time>2012-04-22T07:19:44Z</time>
      </trkpt>
      <trkpt lat="43.72434" lon="6.85526">
        <ele>975</ele>
        <time>2012-04-22T07:19:54Z</time>
      </trkpt>
      <trkpt lat="43.7243" lon="6.85508">
        <ele>980</ele>
        <time>2012-04-22T07:20:04Z</time>
      </trkpt>
      <trkpt lat="43.72431" lon="6.85487">
        <ele>981</ele>
        <time>2012-04-22T07:20:14Z</time>
      </trkpt>
      <trkpt lat="43.72428" lon="6.85465">
        <ele>987</ele>
        <time>2012-04-22T07:20:24Z</time>
      </trkpt>
      <trkpt lat="43.72422" lon="6.85446">
        <ele>990</ele>
        <time>2012-04-22T07:20:34Z</time>
      </trkpt>
      <trkpt lat="43.72417" lon="6.85428">
        <ele>995</ele>
        <time>2012-04-22T07:20:44Z</time>
      </trkpt>
      <trkpt lat="43.72417" lon="6.85407">
        <ele>995</ele>
        <time>2012-04-22T07:20:54Z</time>
      </trkpt>
      <trkpt lat="43.72418" lon="6.85389">
        <ele>997</ele>
        <time>2012-04-22T07:21:04Z</time>
      </trkpt>
      <trkpt lat="43.7242" lon="6.85365">
        <ele>998</ele>
        <time>2012-04-22T07:21:14Z</time>
      </trkpt>
      <trkpt lat="43.72421" lon="6.85346">
        <ele>999</ele>
        <time>2012-04-22T07:21:25Z</time>
      </trkpt>
      <trkpt lat="43.72407" lon="6.85343">
        <ele>999</ele>
        <time>2012-04-22T07:21:35Z</time>
      </trkpt>
      <trkpt lat="43.72381" lon="6.85351">
        <ele>999</ele>
        <time>2012-04-22T07:21:45Z</time>
      </trkpt>
      <trkpt lat="43.72358" lon="6.85353">
        <ele>997</ele>
        <time>2012-04-22T07:21:55Z</time>
      </trkpt>
      <trkpt lat="43.7234" lon="6.85347">
        <ele>997</ele>
        <time>2012-04-22T07:22:05Z</time>
      </trkpt>
      <trkpt lat="43.72325" lon="6.85339">
        <ele>998</ele>
        <time>2012-04-22T07:22:15Z</time>
      </trkpt>
      <trkpt lat="43.72311" lon="6.85327">
        <ele>1002</ele>
        <time>2012-04-22T07:22:25Z</time>
      </trkpt>
      <trkpt lat="43.72299" lon="6.85314">
        <ele>1005</ele>
        <time>2012-04-22T07:22:35Z</time>
      </trkpt>
      <trkpt lat="43.72286" lon="6.853">
        <ele>1007</ele>
        <time>2012-04-22T07:22:45Z</time>
      </trkpt>
      <trkpt lat="43.72274" lon="6.85286">
        <ele>1008</ele>
        <time>2012-04-22T07:22:55Z</time>
      </trkpt>
      <trkpt lat="43.72264" lon="6.8527">
        <ele>1010</ele>
        <time>2012-04-22T07:23:06Z</time>
      </trkpt>
      <trkpt lat="43.72253" lon="6.85256">
        <ele>1012</ele>
        <time>2012-04-22T07:23:16Z</time>
      </trkpt>
      <trkpt lat="43.72243" lon="6.85241">
        <ele>1014</ele>
        <time>2012-04-22T07:23:26Z</time>
      </trkpt>
      <trkpt lat="43.72234" lon="6.85226">
        <ele>1017</ele>
        <time>2012-04-22T07:23:36Z</time>
      </trkpt>
      <trkpt lat="43.72225" lon="6.85212">
        <ele>1020</ele>
        <time>2012-04-22T07:23:46Z</time>
      </trkpt>
      <trkpt lat="43.72218" lon="6.85194">
        <ele>1020</ele>
        <time>2012-04-22T07:23:56Z</time>
      </trkpt>
      <trkpt lat="43.7221" lon="6.85178">
        <ele>1022</ele>
        <time>2012-04-22T07:24:06Z</time>
      </trkpt>
      <trkpt lat="43.72201" lon="6.85162">
        <ele>1024</ele>
        <time>2012-04-22T07:24:17Z</time>
      </trkpt>
      <trkpt lat="43.72192" lon="6.85148">
        <ele>1028</ele>
        <time>2012-04-22T07:24:27Z</time>
      </trkpt>
      <trkpt lat="43.72185" lon="6.85132">
        <ele>1031</ele>
        <time>2012-04-22T07:24:37Z</time>
      </trkpt>
      <trkpt lat="43.72177" lon="6.85115">
        <ele>1034</ele>
        <time>2012-04-22T07:24:48Z</time>
      </trkpt>
      <trkpt lat="43.7217" lon="6.85099">
        <ele>1034</ele>
        <time>2012-04-22T07:24:58Z</time>
      </trkpt>
      <trkpt lat="43.72163" lon="6.8508">
        <ele>1034</ele>
        <time>2012-04-22T07:25:08Z</time>
      </trkpt>
      <trkpt lat="43.72155" lon="6.85062">
        <ele>1034</ele>
        <time>2012-04-22T07:25:18Z</time>
      </trkpt>
      <trkpt lat="43.72145" lon="6.85047">
        <ele>1037</ele>
        <time>2012-04-22T07:25:28Z</time>
      </trkpt>
      <trkpt lat="43.72136" lon="6.85033">
        <ele>1040</ele>
        <time>2012-04-22T07:25:38Z</time>
      </trkpt>
      <trkpt lat="43.72129" lon="6.85017">
        <ele>1042</ele>
        <time>2012-04-22T07:25:48Z</time>
      </trkpt>
      <trkpt lat="43.72123" lon="6.84998">
        <ele>1043</ele>
        <time>2012-04-22T07:25:58Z</time>
      </trkpt>
      <trkpt lat="43.72119" lon="6.84976">
        <ele>1043</ele>
        <time>2012-04-22T07:26:08Z</time>
      </trkpt>
      <trkpt lat="43.72115" lon="6.84955">
        <ele>1043</ele>
        <time>2012-04-22T07:26:18Z</time>
      </trkpt>
      <trkpt lat="43.72112" lon="6.84935">
        <ele>1045</ele>
        <time>2012-04-22T07:26:28Z</time>
      </trkpt>
      <trkpt lat="43.72109" lon="6.84915">
        <ele>1047</ele>
        <time>2012-04-22T07:26:38Z</time>
      </trkpt>
      <trkpt lat="43.72107" lon="6.84893">
        <ele>1048</ele>
        <time>2012-04-22T07:26:48Z</time>
      </trkpt>
      <trkpt lat="43.72105" lon="6.84872">
        <ele>1048</ele>
        <time>2012-04-22T07:26:58Z</time>
      </trkpt>
      <trkpt lat="43.72103" lon="6.84853">
        <ele>1051</ele>
        <time>2012-04-22T07:27:08Z</time>
      </trkpt>
      <trkpt lat="43.721" lon="6.84834">
        <ele>1055</ele>
        <time>2012-04-22T07:27:18Z</time>
      </trkpt>
      <trkpt lat="43.721" lon="6.84812">
        <ele>1056</ele>
        <time>2012-04-22T07:27:28Z</time>
      </trkpt>
      <trkpt lat="43.721" lon="6.84792">
        <ele>1057</ele>
        <time>2012-04-22T07:27:38Z</time>
      </trkpt>
      <trkpt lat="43.72098" lon="6.8477">
        <ele>1058</ele>
        <time>2012-04-22T07:27:48Z</time>
      </trkpt>
      <trkpt lat="43.72097" lon="6.84749">
        <ele>1061</ele>
        <time>2012-04-22T07:27:58Z</time>
      </trkpt>
      <trkpt lat="43.72094" lon="6.84725">
        <ele>1064</ele>
        <time>2012-04-22T07:28:08Z</time>
      </trkpt>
      <trkpt lat="43.72094" lon="6.84701">
        <ele>1067</ele>
        <time>2012-04-22T07:28:18Z</time>
      </trkpt>
      <trkpt lat="43.72092" lon="6.84676">
        <ele>1069</ele>
        <time>2012-04-22T07:28:28Z</time>
      </trkpt>
      <trkpt lat="43.72091" lon="6.84653">
        <ele>1072</ele>
        <time>2012-04-22T07:28:38Z</time>
      </trkpt>
      <trkpt lat="43.72091" lon="6.8463">
        <ele>1074</ele>
        <time>2012-04-22T07:28:48Z</time>
      </trkpt>
      <trkpt lat="43.72092" lon="6.84605">
        <ele>1075</ele>
        <time>2012-04-22T07:28:58Z</time>
      </trkpt>
      <trkpt lat="43.7209" lon="6.84583">
        <ele>1077</ele>
        <time>2012-04-22T07:29:08Z</time>
      </trkpt>
      <trkpt lat="43.72091" lon="6.84558">
        <ele>1078</ele>
        <time>2012-04-22T07:29:18Z</time>
      </trkpt>
      <trkpt lat="43.72088" lon="6.84535">
        <ele>1078</ele>
        <time>2012-04-22T07:29:28Z</time>
      </trkpt>
      <trkpt lat="43.72086" lon="6.84511">
        <ele>1081</ele>
        <time>2012-04-22T07:29:38Z</time>
      </trkpt>
      <trkpt lat="43.72088" lon="6.84489">
        <ele>1082</ele>
        <time>2012-04-22T07:29:48Z</time>
      </trkpt>
      <trkpt lat="43.72089" lon="6.84467">
        <ele>1082</ele>
        <time>2012-04-22T07:29:58Z</time>
      </trkpt>
      <trkpt lat="43.72088" lon="6.84443">
        <ele>1082</ele>
        <time>2012-04-22T07:30:08Z</time>
      </trkpt>
      <trkpt lat="43.72088" lon="6.84417">
        <ele>1083</ele>
        <time>2012-04-22T07:30:18Z</time>
      </trkpt>
      <trkpt lat="43.72086" lon="6.84394">
        <ele>1088</ele>
        <time>2012-04-22T07:30:28Z</time>
      </trkpt>
      <trkpt lat="43.72088" lon="6.84367">
        <ele>1092</ele>
        <time>2012-04-22T07:30:38Z</time>
      </trkpt>
      <trkpt lat="43.72093" lon="6.84341">
        <ele>1092</ele>
        <time>2012-04-22T07:30:48Z</time>
      </trkpt>
      <trkpt lat="43.72099" lon="6.84345">
        <ele>1092</ele>
        <time>2012-04-22T07:30:59Z</time>
      </trkpt>
      <trkpt lat="43.72099" lon="6.84358">
        <ele>1092</ele>
        <time>2012-04-22T07:31:09Z</time>
      </trkpt>
      <trkpt lat="43.72102" lon="6.84376">
        <ele>1092</ele>
        <time>2012-04-22T07:31:19Z</time>
      </trkpt>
      <trkpt lat="43.72104" lon="6.84395">
        <ele>1092</ele>
        <time>2012-04-22T07:31:29Z</time>
      </trkpt>
      <trkpt lat="43.72107" lon="6.84416">
        <ele>1092</ele>
        <time>2012-04-22T07:31:39Z</time>
      </trkpt>
      <trkpt lat="43.7211" lon="6.84437">
        <ele>1092</ele>
        <time>2012-04-22T07:31:49Z</time>
      </trkpt>
      <trkpt lat="43.72113" lon="6.84457">
        <ele>1093</ele>
        <time>2012-04-22T07:31:59Z</time>
      </trkpt>
      <trkpt lat="43.72118" lon="6.84476">
        <ele>1095</ele>
        <time>2012-04-22T07:32:09Z</time>
      </trkpt>
      <trkpt lat="43.72122" lon="6.84493">
        <ele>1096</ele>
        <time>2012-04-22T07:32:19Z</time>
      </trkpt>
      <trkpt lat="43.72126" lon="6.8451">
        <ele>1098</ele>
        <time>2012-04-22T07:32:29Z</time>
      </trkpt>
      <trkpt lat="43.72131" lon="6.84527">
        <ele>1099</ele>
        <time>2012-04-22T07:32:39Z</time>
      </trkpt>
      <trkpt lat="43.72137" lon="6.84544">
        <ele>1101</ele>
        <time>2012-04-22T07:32:49Z</time>
      </trkpt>
      <trkpt lat="43.72141" lon="6.84562">
        <ele>1103</ele>
        <time>2012-04-22T07:32:59Z</time>
      </trkpt>
      <trkpt lat="43.72145" lon="6.8458">
        <ele>1105</ele>
        <time>2012-04-22T07:33:09Z</time>
      </trkpt>
      <trkpt lat="43.72151" lon="6.846">
        <ele>1107</ele>
        <time>2012-04-22T07:33:19Z</time>
      </trkpt>
      <trkpt lat="43.72156" lon="6.84618">
        <ele>1109</ele>
        <time>2012-04-22T07:33:29Z</time>
      </trkpt>
      <trkpt lat="43.72161" lon="6.84637">
        <ele>1110</ele>
        <time>2012-04-22T07:33:39Z</time>
      </trkpt>
      <trkpt lat="43.72165" lon="6.84654">
        <ele>1112</ele>
        <time>2012-04-22T07:33:49Z</time>
      </trkpt>
      <trkpt lat="43.72168" lon="6.8467">
        <ele>1114</ele>
        <time>2012-04-22T07:33:59Z</time>
      </trkpt>
      <trkpt lat="43.72174" lon="6.84686">
        <ele>1116</ele>
        <time>2012-04-22T07:34:09Z</time>
      </trkpt>
      <trkpt lat="43.72177" lon="6.84702">
        <ele>1117</ele>
        <time>2012-04-22T07:34:19Z</time>
      </trkpt>
      <trkpt lat="43.72181" lon="6.84718">
        <ele>1119</ele>
        <time>2012-04-22T07:34:29Z</time>
      </trkpt>
      <trkpt lat="43.72187" lon="6.84734">
        <ele>1121</ele>
        <time>2012-04-22T07:34:39Z</time>
      </trkpt>
      <trkpt lat="43.72191" lon="6.8475">
        <ele>1123</ele>
        <time>2012-04-22T07:34:49Z</time>
      </trkpt>
      <trkpt lat="43.72196" lon="6.84769">
        <ele>1125</ele>
        <time>2012-04-22T07:34:59Z</time>
      </trkpt>
      <trkpt lat="43.72201" lon="6.84786">
        <ele>1126</ele>
        <time>2012-04-22T07:35:09Z</time>
      </trkpt>
      <trkpt lat="43.72208" lon="6.84804">
        <ele>1129</ele>
        <time>2012-04-22T07:35:19Z</time>
      </trkpt>
      <trkpt lat="43.72214" lon="6.84821">
        <ele>1131</ele>
        <time>2012-04-22T07:35:29Z</time>
      </trkpt>
      <trkpt lat="43.72222" lon="6.8484">
        <ele>1133</ele>
        <time>2012-04-22T07:35:39Z</time>
      </trkpt>
      <trkpt lat="43.72228" lon="6.84858">
        <ele>1135</ele>
        <time>2012-04-22T07:35:49Z</time>
      </trkpt>
      <trkpt lat="43.72236" lon="6.84875">
        <ele>1136</ele>
        <time>2012-04-22T07:35:59Z</time>
      </trkpt>
      <trkpt lat="43.72244" lon="6.8489">
        <ele>1137</ele>
        <time>2012-04-22T07:36:09Z</time>
      </trkpt>
      <trkpt lat="43.7225" lon="6.84906">
        <ele>1139</ele>
        <time>2012-04-22T07:36:19Z</time>
      </trkpt>
      <trkpt lat="43.72261" lon="6.84919">
        <ele>1140</ele>
        <time>2012-04-22T07:36:29Z</time>
      </trkpt>
      <trkpt lat="43.72262" lon="6.84909">
        <ele>1141</ele>
        <time>2012-04-22T07:36:39Z</time>
      </trkpt>
      <trkpt lat="43.72262" lon="6.84905">
        <ele>1141</ele>
        <time>2012-04-22T07:36:56Z</time>
      </trkpt>
      <trkpt lat="43.72265" lon="6.84907">
        <ele>1141</ele>
        <time>2012-04-22T07:37:06Z</time>
      </trkpt>
      <trkpt lat="43.72266" lon="6.84909">
        <ele>1141</ele>
        <time>2012-04-22T07:37:16Z</time>
      </trkpt>
      <trkpt lat="43.72268" lon="6.84909">
        <ele>1141</ele>
        <time>2012-04-22T07:37:34Z</time>
      </trkpt>
      <trkpt lat="43.7227" lon="6.84908">
        <ele>1133</ele>
        <time>2012-04-22T07:37:56Z</time>
      </trkpt>
      <trkpt lat="43.72273" lon="6.8491">
        <ele>1126</ele>
        <time>2012-04-22T07:38:06Z</time>
      </trkpt>
      <trkpt lat="43.7227" lon="6.84906">
        <ele>1124</ele>
        <time>2012-04-22T07:38:17Z</time>
      </trkpt>
      <trkpt lat="43.7226" lon="6.84892">
        <ele>1128</ele>
        <time>2012-04-22T07:38:28Z</time>
      </trkpt>
      <trkpt lat="43.72253" lon="6.84875">
        <ele>1136</ele>
        <time>2012-04-22T07:38:38Z</time>
      </trkpt>
      <trkpt lat="43.72251" lon="6.84856">
        <ele>1140</ele>
        <time>2012-04-22T07:38:48Z</time>
      </trkpt>
      <trkpt lat="43.72248" lon="6.84838">
        <ele>1144</ele>
        <time>2012-04-22T07:38:58Z</time>
      </trkpt>
      <trkpt lat="43.72246" lon="6.84819">
        <ele>1147</ele>
        <time>2012-04-22T07:39:08Z</time>
      </trkpt>
      <trkpt lat="43.72245" lon="6.84799">
        <ele>1151</ele>
        <time>2012-04-22T07:39:18Z</time>
      </trkpt>
      <trkpt lat="43.72245" lon="6.84779">
        <ele>1153</ele>
        <time>2012-04-22T07:39:28Z</time>
      </trkpt>
      <trkpt lat="43.72243" lon="6.84761">
        <ele>1156</ele>
        <time>2012-04-22T07:39:38Z</time>
      </trkpt>
      <trkpt lat="43.72243" lon="6.84741">
        <ele>1158</ele>
        <time>2012-04-22T07:39:48Z</time>
      </trkpt>
      <trkpt lat="43.72244" lon="6.84721">
        <ele>1160</ele>
        <time>2012-04-22T07:39:58Z</time>
      </trkpt>
      <trkpt lat="43.72243" lon="6.84702">
        <ele>1163</ele>
        <time>2012-04-22T07:40:08Z</time>
      </trkpt>
      <trkpt lat="43.72244" lon="6.84681">
        <ele>1164</ele>
        <time>2012-04-22T07:40:18Z</time>
      </trkpt>
      <trkpt lat="43.72245" lon="6.8466">
        <ele>1165</ele>
        <time>2012-04-22T07:40:28Z</time>
      </trkpt>
      <trkpt lat="43.72244" lon="6.8464">
        <ele>1166</ele>
        <time>2012-04-22T07:40:38Z</time>
      </trkpt>
      <trkpt lat="43.72244" lon="6.84619">
        <ele>1167</ele>
        <time>2012-04-22T07:40:48Z</time>
      </trkpt>
      <trkpt lat="43.72244" lon="6.84599">
        <ele>1169</ele>
        <time>2012-04-22T07:40:58Z</time>
      </trkpt>
      <trkpt lat="43.72245" lon="6.84578">
        <ele>1171</ele>
        <time>2012-04-22T07:41:08Z</time>
      </trkpt>
      <trkpt lat="43.72245" lon="6.84557">
        <ele>1173</ele>
        <time>2012-04-22T07:41:18Z</time>
      </trkpt>
      <trkpt lat="43.72246" lon="6.84536">
        <ele>1175</ele>
        <time>2012-04-22T07:41:28Z</time>
      </trkpt>
      <trkpt lat="43.72248" lon="6.84516">
        <ele>1177</ele>
        <time>2012-04-22T07:41:38Z</time>
      </trkpt>
      <trkpt lat="43.72251" lon="6.84494">
        <ele>1179</ele>
        <time>2012-04-22T07:41:48Z</time>
      </trkpt>
      <trkpt lat="43.72254" lon="6.84474">
        <ele>1180</ele>
        <time>2012-04-22T07:41:58Z</time>
      </trkpt>
      <trkpt lat="43.72257" lon="6.84455">
        <ele>1182</ele>
        <time>2012-04-22T07:42:08Z</time>
      </trkpt>
      <trkpt lat="43.7226" lon="6.84436">
        <ele>1183</ele>
        <time>2012-04-22T07:42:19Z</time>
      </trkpt>
      <trkpt lat="43.72263" lon="6.84417">
        <ele>1185</ele>
        <time>2012-04-22T07:42:29Z</time>
      </trkpt>
      <trkpt lat="43.72266" lon="6.84399">
        <ele>1187</ele>
        <time>2012-04-22T07:42:39Z</time>
      </trkpt>
      <trkpt lat="43.72269" lon="6.8438">
        <ele>1189</ele>
        <time>2012-04-22T07:42:49Z</time>
      </trkpt>
      <trkpt lat="43.72272" lon="6.84359">
        <ele>1191</ele>
        <time>2012-04-22T07:42:59Z</time>
      </trkpt>
      <trkpt lat="43.72275" lon="6.84342">
        <ele>1194</ele>
        <time>2012-04-22T07:43:09Z</time>
      </trkpt>
      <trkpt lat="43.72279" lon="6.84324">
        <ele>1197</ele>
        <time>2012-04-22T07:43:19Z</time>
      </trkpt>
      <trkpt lat="43.72284" lon="6.84307">
        <ele>1200</ele>
        <time>2012-04-22T07:43:29Z</time>
      </trkpt>
      <trkpt lat="43.72288" lon="6.84291">
        <ele>1200</ele>
        <time>2012-04-22T07:43:39Z</time>
      </trkpt>
      <trkpt lat="43.72292" lon="6.84272">
        <ele>1202</ele>
        <time>2012-04-22T07:43:49Z</time>
      </trkpt>
      <trkpt lat="43.72296" lon="6.84254">
        <ele>1203</ele>
        <time>2012-04-22T07:43:59Z</time>
      </trkpt>
      <trkpt lat="43.723" lon="6.84237">
        <ele>1206</ele>
        <time>2012-04-22T07:44:09Z</time>
      </trkpt>
      <trkpt lat="43.72303" lon="6.8422">
        <ele>1208</ele>
        <time>2012-04-22T07:44:19Z</time>
      </trkpt>
      <trkpt lat="43.72308" lon="6.842">
        <ele>1209</ele>
        <time>2012-04-22T07:44:29Z</time>
      </trkpt>
      <trkpt lat="43.7231" lon="6.84181">
        <ele>1210</ele>
        <time>2012-04-22T07:44:39Z</time>
      </trkpt>
      <trkpt lat="43.72311" lon="6.84165">
        <ele>1213</ele>
        <time>2012-04-22T07:44:49Z</time>
      </trkpt>
      <trkpt lat="43.72313" lon="6.84146">
        <ele>1215</ele>
        <time>2012-04-22T07:44:59Z</time>
      </trkpt>
      <trkpt lat="43.72316" lon="6.84128">
        <ele>1216</ele>
        <time>2012-04-22T07:45:09Z</time>
      </trkpt>
      <trkpt lat="43.72319" lon="6.8411">
        <ele>1218</ele>
        <time>2012-04-22T07:45:19Z</time>
      </trkpt>
      <trkpt lat="43.72322" lon="6.84091">
        <ele>1219</ele>
        <time>2012-04-22T07:45:29Z</time>
      </trkpt>
      <trkpt lat="43.72324" lon="6.84072">
        <ele>1219</ele>
        <time>2012-04-22T07:45:39Z</time>
      </trkpt>
      <trkpt lat="43.72326" lon="6.84053">
        <ele>1221</ele>
        <time>2012-04-22T07:45:49Z</time>
      </trkpt>
      <trkpt lat="43.72328" lon="6.84033">
        <ele>1222</ele>
        <time>2012-04-22T07:45:59Z</time>
      </trkpt>
      <trkpt lat="43.7233" lon="6.84014">
        <ele>1223</ele>
        <time>2012-04-22T07:46:09Z</time>
      </trkpt>
      <trkpt lat="43.72331" lon="6.83995">
        <ele>1225</ele>
        <time>2012-04-22T07:46:19Z</time>
      </trkpt>
      <trkpt lat="43.72332" lon="6.83976">
        <ele>1227</ele>
        <time>2012-04-22T07:46:29Z</time>
      </trkpt>
      <trkpt lat="43.72333" lon="6.83957">
        <ele>1228</ele>
        <time>2012-04-22T07:46:39Z</time>
      </trkpt>
      <trkpt lat="43.72335" lon="6.83937">
        <ele>1229</ele>
        <time>2012-04-22T07:46:49Z</time>
      </trkpt>
      <trkpt lat="43.72336" lon="6.83917">
        <ele>1230</ele>
        <time>2012-04-22T07:46:59Z</time>
      </trkpt>
      <trkpt lat="43.72338" lon="6.83898">
        <ele>1231</ele>
        <time>2012-04-22T07:47:09Z</time>
      </trkpt>
      <trkpt lat="43.72341" lon="6.83878">
        <ele>1233</ele>
        <time>2012-04-22T07:47:19Z</time>
      </trkpt>
      <trkpt lat="43.72343" lon="6.83859">
        <ele>1234</ele>
        <time>2012-04-22T07:47:29Z</time>
      </trkpt>
      <trkpt lat="43.72344" lon="6.83839">
        <ele>1236</ele>
        <time>2012-04-22T07:47:39Z</time>
      </trkpt>
      <trkpt lat="43.72345" lon="6.83819">
        <ele>1238</ele>
        <time>2012-04-22T07:47:49Z</time>
      </trkpt>
      <trkpt lat="43.72347" lon="6.83799">
        <ele>1240</ele>
        <time>2012-04-22T07:47:59Z</time>
      </trkpt>
      <trkpt lat="43.7235" lon="6.83778">
        <ele>1241</ele>
        <time>2012-04-22T07:48:09Z</time>
      </trkpt>
      <trkpt lat="43.72353" lon="6.8376">
        <ele>1243</ele>
        <time>2012-04-22T07:48:19Z</time>
      </trkpt>
      <trkpt lat="43.72357" lon="6.83741">
        <ele>1245</ele>
        <time>2012-04-22T07:48:29Z</time>
      </trkpt>
      <trkpt lat="43.72361" lon="6.83723">
        <ele>1248</ele>
        <time>2012-04-22T07:48:39Z</time>
      </trkpt>
      <trkpt lat="43.72364" lon="6.83705">
        <ele>1249</ele>
        <time>2012-04-22T07:48:49Z</time>
      </trkpt>
      <trkpt lat="43.72375" lon="6.83699">
        <ele>1250</ele>
        <time>2012-04-22T07:48:59Z</time>
      </trkpt>
      <trkpt lat="43.72371" lon="6.83716">
        <ele>1250</ele>
        <time>2012-04-22T07:49:09Z</time>
      </trkpt>
      <trkpt lat="43.72368" lon="6.83737">
        <ele>1250</ele>
        <time>2012-04-22T07:49:19Z</time>
      </trkpt>
      <trkpt lat="43.72365" lon="6.83758">
        <ele>1250</ele>
        <time>2012-04-22T07:49:29Z</time>
      </trkpt>
      <trkpt lat="43.72364" lon="6.83779">
        <ele>1250</ele>
        <time>2012-04-22T07:49:39Z</time>
      </trkpt>
      <trkpt lat="43.72366" lon="6.83799">
        <ele>1250</ele>
        <time>2012-04-22T07:49:50Z</time>
      </trkpt>
      <trkpt lat="43.7237" lon="6.83816">
        <ele>1250</ele>
        <time>2012-04-22T07:50:00Z</time>
      </trkpt>
      <trkpt lat="43.72374" lon="6.83833">
        <ele>1251</ele>
        <time>2012-04-22T07:50:10Z</time>
      </trkpt>
      <trkpt lat="43.72377" lon="6.83852">
        <ele>1253</ele>
        <time>2012-04-22T07:50:20Z</time>
      </trkpt>
      <trkpt lat="43.7238" lon="6.83872">
        <ele>1254</ele>
        <time>2012-04-22T07:50:30Z</time>
      </trkpt>
      <trkpt lat="43.72382" lon="6.83891">
        <ele>1256</ele>
        <time>2012-04-22T07:50:40Z</time>
      </trkpt>
      <trkpt lat="43.72384" lon="6.83911">
        <ele>1258</ele>
        <time>2012-04-22T07:50:50Z</time>
      </trkpt>
      <trkpt lat="43.72386" lon="6.83929">
        <ele>1260</ele>
        <time>2012-04-22T07:51:00Z</time>
      </trkpt>
      <trkpt lat="43.72389" lon="6.83947">
        <ele>1262</ele>
        <time>2012-04-22T07:51:10Z</time>
      </trkpt>
      <trkpt lat="43.72392" lon="6.83967">
        <ele>1264</ele>
        <time>2012-04-22T07:51:20Z</time>
      </trkpt>
      <trkpt lat="43.72396" lon="6.83987">
        <ele>1266</ele>
        <time>2012-04-22T07:51:30Z</time>
      </trkpt>
      <trkpt lat="43.72399" lon="6.84005">
        <ele>1267</ele>
        <time>2012-04-22T07:51:40Z</time>
      </trkpt>
      <trkpt lat="43.72401" lon="6.84022">
        <ele>1268</ele>
        <time>2012-04-22T07:51:50Z</time>
      </trkpt>
      <trkpt lat="43.72404" lon="6.84039">
        <ele>1270</ele>
        <time>2012-04-22T07:52:00Z</time>
      </trkpt>
      <trkpt lat="43.72407" lon="6.84057">
        <ele>1271</ele>
        <time>2012-04-22T07:52:10Z</time>
      </trkpt>
      <trkpt lat="43.7241" lon="6.84075">
        <ele>1273</ele>
        <time>2012-04-22T07:52:20Z</time>
      </trkpt>
      <trkpt lat="43.72412" lon="6.84093">
        <ele>1274</ele>
        <time>2012-04-22T07:52:30Z</time>
      </trkpt>
      <trkpt lat="43.72413" lon="6.84111">
        <ele>1275</ele>
        <time>2012-04-22T07:52:40Z</time>
      </trkpt>
      <trkpt lat="43.72415" lon="6.84129">
        <ele>1278</ele>
        <time>2012-04-22T07:52:50Z</time>
      </trkpt>
      <trkpt lat="43.72415" lon="6.84148">
        <ele>1280</ele>
        <time>2012-04-22T07:53:00Z</time>
      </trkpt>
      <trkpt lat="43.72415" lon="6.84165">
        <ele>1282</ele>
        <time>2012-04-22T07:53:10Z</time>
      </trkpt>
      <trkpt lat="43.72417" lon="6.84182">
        <ele>1283</ele>
        <time>2012-04-22T07:53:20Z</time>
      </trkpt>
      <trkpt lat="43.72417" lon="6.842">
        <ele>1285</ele>
        <time>2012-04-22T07:53:30Z</time>
      </trkpt>
      <trkpt lat="43.72417" lon="6.84219">
        <ele>1287</ele>
        <time>2012-04-22T07:53:40Z</time>
      </trkpt>
      <trkpt lat="43.72418" lon="6.84235">
        <ele>1289</ele>
        <time>2012-04-22T07:53:59Z</time>
      </trkpt>
      <trkpt lat="43.72421" lon="6.84238">
        <ele>1282</ele>
        <time>2012-04-22T07:54:06Z</time>
      </trkpt>
      <trkpt lat="43.72421" lon="6.84248">
        <ele>1282</ele>
        <time>2012-04-22T07:54:16Z</time>
      </trkpt>
      <trkpt lat="43.72422" lon="6.84267">
        <ele>1282</ele>
        <time>2012-04-22T07:54:26Z</time>
      </trkpt>
      <trkpt lat="43.72422" lon="6.84288">
        <ele>1283</ele>
        <time>2012-04-22T07:54:36Z</time>
      </trkpt>
      <trkpt lat="43.72424" lon="6.84309">
        <ele>1285</ele>
        <time>2012-04-22T07:54:46Z</time>
      </trkpt>
      <trkpt lat="43.72426" lon="6.8433">
        <ele>1287</ele>
        <time>2012-04-22T07:54:56Z</time>
      </trkpt>
      <trkpt lat="43.72428" lon="6.8435">
        <ele>1289</ele>
        <time>2012-04-22T07:55:06Z</time>
      </trkpt>
      <trkpt lat="43.7243" lon="6.8437">
        <ele>1291</ele>
        <time>2012-04-22T07:55:16Z</time>
      </trkpt>
      <trkpt lat="43.72433" lon="6.8439">
        <ele>1293</ele>
        <time>2012-04-22T07:55:26Z</time>
      </trkpt>
      <trkpt lat="43.72435" lon="6.84409">
        <ele>1295</ele>
        <time>2012-04-22T07:55:36Z</time>
      </trkpt>
      <trkpt lat="43.72437" lon="6.84428">
        <ele>1297</ele>
        <time>2012-04-22T07:55:46Z</time>
      </trkpt>
      <trkpt lat="43.72439" lon="6.84446">
        <ele>1298</ele>
        <time>2012-04-22T07:55:56Z</time>
      </trkpt>
      <trkpt lat="43.72441" lon="6.84465">
        <ele>1300</ele>
        <time>2012-04-22T07:56:06Z</time>
      </trkpt>
      <trkpt lat="43.72443" lon="6.84485">
        <ele>1301</ele>
        <time>2012-04-22T07:56:16Z</time>
      </trkpt>
      <trkpt lat="43.72445" lon="6.84504">
        <ele>1303</ele>
        <time>2012-04-22T07:56:26Z</time>
      </trkpt>
      <trkpt lat="43.72447" lon="6.84523">
        <ele>1304</ele>
        <time>2012-04-22T07:56:36Z</time>
      </trkpt>
      <trkpt lat="43.7245" lon="6.84543">
        <ele>1306</ele>
        <time>2012-04-22T07:56:46Z</time>
      </trkpt>
      <trkpt lat="43.72454" lon="6.84566">
        <ele>1307</ele>
        <time>2012-04-22T07:56:57Z</time>
      </trkpt>
      <trkpt lat="43.7246" lon="6.84585">
        <ele>1308</ele>
        <time>2012-04-22T07:57:07Z</time>
      </trkpt>
      <trkpt lat="43.72469" lon="6.84602">
        <ele>1308</ele>
        <time>2012-04-22T07:57:17Z</time>
      </trkpt>
      <trkpt lat="43.72479" lon="6.84617">
        <ele>1308</ele>
        <time>2012-04-22T07:57:27Z</time>
      </trkpt>
      <trkpt lat="43.72491" lon="6.84617">
        <ele>1311</ele>
        <time>2012-04-22T07:57:38Z</time>
      </trkpt>
      <trkpt lat="43.725" lon="6.84606">
        <ele>1317</ele>
        <time>2012-04-22T07:57:50Z</time>
      </trkpt>
      <trkpt lat="43.72509" lon="6.84599">
        <ele>1321</ele>
        <time>2012-04-22T07:58:00Z</time>
      </trkpt>
      <trkpt lat="43.7252" lon="6.84595">
        <ele>1325</ele>
        <time>2012-04-22T07:58:10Z</time>
      </trkpt>
      <trkpt lat="43.72533" lon="6.84593">
        <ele>1329</ele>
        <time>2012-04-22T07:58:21Z</time>
      </trkpt>
      <trkpt lat="43.72545" lon="6.84592">
        <ele>1332</ele>
        <time>2012-04-22T07:58:31Z</time>
      </trkpt>
      <trkpt lat="43.72559" lon="6.84589">
        <ele>1334</ele>
        <time>2012-04-22T07:58:42Z</time>
      </trkpt>
      <trkpt lat="43.72572" lon="6.84583">
        <ele>1337</ele>
        <time>2012-04-22T07:58:53Z</time>
      </trkpt>
      <trkpt lat="43.72586" lon="6.84575">
        <ele>1338</ele>
        <time>2012-04-22T07:59:03Z</time>
      </trkpt>
      <trkpt lat="43.72597" lon="6.84564">
        <ele>1339</ele>
        <time>2012-04-22T07:59:13Z</time>
      </trkpt>
      <trkpt lat="43.72605" lon="6.84546">
        <ele>1339</ele>
        <time>2012-04-22T07:59:23Z</time>
      </trkpt>
      <trkpt lat="43.72617" lon="6.8453">
        <ele>1340</ele>
        <time>2012-04-22T07:59:34Z</time>
      </trkpt>
      <trkpt lat="43.72629" lon="6.8452">
        <ele>1342</ele>
        <time>2012-04-22T07:59:44Z</time>
      </trkpt>
      <trkpt lat="43.72642" lon="6.84512">
        <ele>1345</ele>
        <time>2012-04-22T07:59:54Z</time>
      </trkpt>
      <trkpt lat="43.72657" lon="6.84506">
        <ele>1349</ele>
        <time>2012-04-22T08:00:04Z</time>
      </trkpt>
      <trkpt lat="43.72673" lon="6.8451">
        <ele>1352</ele>
        <time>2012-04-22T08:00:14Z</time>
      </trkpt>
      <trkpt lat="43.72694" lon="6.84512">
        <ele>1353</ele>
        <time>2012-04-22T08:00:24Z</time>
      </trkpt>
      <trkpt lat="43.72717" lon="6.84513">
        <ele>1353</ele>
        <time>2012-04-22T08:00:34Z</time>
      </trkpt>
      <trkpt lat="43.72743" lon="6.84511">
        <ele>1353</ele>
        <time>2012-04-22T08:00:44Z</time>
      </trkpt>
      <trkpt lat="43.72767" lon="6.84512">
        <ele>1353</ele>
        <time>2012-04-22T08:00:55Z</time>
      </trkpt>
      <trkpt lat="43.72798" lon="6.84528">
        <ele>1353</ele>
        <time>2012-04-22T08:01:05Z</time>
      </trkpt>
      <trkpt lat="43.72834" lon="6.84572">
        <ele>1347</ele>
        <time>2012-04-22T08:01:15Z</time>
      </trkpt>
      <trkpt lat="43.72849" lon="6.84595">
        <ele>1337</ele>
        <time>2012-04-22T08:01:30Z</time>
      </trkpt>
      <trkpt lat="43.72848" lon="6.84596">
        <ele>1337</ele>
        <time>2012-04-22T08:01:50Z</time>
      </trkpt>
      <trkpt lat="43.72847" lon="6.84599">
        <ele>1337</ele>
        <time>2012-04-22T08:02:08Z</time>
      </trkpt>
      <trkpt lat="43.72845" lon="6.84602">
        <ele>1337</ele>
        <time>2012-04-22T08:02:21Z</time>
      </trkpt>
      <trkpt lat="43.72844" lon="6.846">
        <ele>1337</ele>
        <time>2012-04-22T08:02:43Z</time>
      </trkpt>
      <trkpt lat="43.72845" lon="6.84599">
        <ele>1337</ele>
        <time>2012-04-22T08:02:59Z</time>
      </trkpt>
      <trkpt lat="43.72848" lon="6.84595">
        <ele>1337</ele>
        <time>2012-04-22T08:03:18Z</time>
      </trkpt>
      <trkpt lat="43.72851" lon="6.84593">
        <ele>1338</ele>
        <time>2012-04-22T08:03:29Z</time>
      </trkpt>
      <trkpt lat="43.72853" lon="6.84594">
        <ele>1340</ele>
        <time>2012-04-22T08:03:38Z</time>
      </trkpt>
    </trkseg>
  </trk>
</gpx>